Aérodrome :
LOGIN :

S'inscrire | Disclaimer

   EN    FR    IT 

 










Légende :    VFR   VFR Marginal   IFR   IFR Intensif   IFR Très Intensif
Visi : 
Plafond : 
>= 8 km
>= 3000ft
5 à 8 km
1000 à 3000 ft
1500m à 5 km
500 à 1000 ft
800 à 1500m
200 à 500 ft
< 800m
< 200 ft
Symboles :   Orages  Brouillard  Fortes neiges  Fortes précipitations  Vent > 20 kt
SIGMETs :   Divers  Orages  Givrage  Turbulence  Onde Orograph.  Cendres Volcan.







- Altitude de l'aérodrome : 36 ft
- Code IATA : LTQ
- Voir les cartes d'approche


LFAT - Le Touquet

DERNIER METAR :
  • 171700Z AUTO 25012KT 220V280 9999 FEW013 19/16 Q1015 NOSIG

METARs EXPIRÉS :
  • 171630Z AUTO 25011KT 210V290 9999 FEW013 20/16 Q1015 NOSIG
  • 171600Z AUTO 25011KT 220V290 9999 BKN013 BKN018 20/16 Q1015 BECMG BKN020
  • 171530Z AUTO 26011KT 220V300 9999 BKN012 BKN017 20/17 Q1015 BECMG BKN020
  • 171500Z AUTO 25011KT 220V280 9999 OVC012 20/17 Q1015 BECMG BKN020
  • 171430Z AUTO 25012KT 210V280 9999 BKN014 BKN019 OVC028 19/16 Q1015 BECMG BKN020

TAF TAF LFAT
Valide du 17 à 15h jusqu'au 18 à 00h UTC


171400Z 1715/1724 24012KT 9999 OVC010
BECMG 1715/1716 BKN020
ATIS : +33 3 21 06 62 84
Pas de NOTAMs connus pour ce terrain.



MET'MAP, la Météo Aéronautique d'un coup d'oeil ! - Copyright ORBIFLY Décembre 2007 - Disclaimer

ORBIFLY MET'MAP TEAM :

Programmation & Développement : Alexandra Zaïnal
Conception & Développement : Baudouin d'Aumeries
Co-Programmation & Développement : Marc-Olivier Méhu
Soutien technique & logistique : Manuel Goepfert

Contact : metmap@orbifly.com




SOURCES & CREDITS :

   NOAA